CheckWX is a tool to help pilots better visualize weather data.  It is not intended as a substitute for an official pre-flight weather briefing.

14:12:36 UTC

KAUM METAR
Austin Municipal Airport
Austin, Minnesota, USA
Current

33 mins ago

KAUM 201340Z AUTO 00000KT 10SM VCTS SCT027 SCT037 BKN080 27/23 A2982 RMK AO2 LTG DSNT NW THRU NE
Observed
Jul-20 @ 13:40 UTC
Visibility
10 SM
Flight Rules
VFR
Conditions
Area Thunderstorm
Cloud Levels
  • Scattered at 2,700' AGL
  • Scattered at 3,700' AGL
  • Broken at 8,000' AGL
Temperature
27°C / 81°F
Dewpoint
23°C / 73°F
Heat Index
30°C / 86°F
Humidity
79%
Altimeter
29.82" Hg
Pressure
1009.82 hPa
Previous

38 mins ago

KAUM 201335Z AUTO 00000KT 10SM VCTS SCT037 SCT043 BKN080 27/23 A2982 RMK AO2 LTG DSNT NW THRU NE
Observed
Jul-20 @ 13:35 UTC
Visibility
10 SM
Flight Rules
VFR
Conditions
Area Thunderstorm
Cloud Levels
  • Scattered at 3,700' AGL
  • Scattered at 4,300' AGL
  • Broken at 8,000' AGL
Temperature
27°C / 81°F
Dewpoint
23°C / 73°F
Heat Index
30°C / 86°F
Humidity
79%
Altimeter
29.82" Hg
Pressure
1009.82 hPa
Previous

57 mins ago

KAUM 201316Z AUTO 00000KT 10SM VCTS CLR 27/23 A2978 RMK AO2 LTG DSNT NW THRU NE
Observed
Jul-20 @ 13:16 UTC
Visibility
10 SM
Flight Rules
VFR
Conditions
Area Thunderstorm
Cloud Levels
  • Clear skies
Temperature
27°C / 81°F
Dewpoint
23°C / 73°F
Heat Index
30°C / 86°F
Humidity
79%
Altimeter
29.78" Hg
Pressure
1008.42 hPa